createdAt,value
2023-02-19T00:01:48.348Z,99349.79
2023-02-19T00:04:19.497Z,99341.26
2023-02-19T00:06:48.286Z,99335.92
2023-02-19T00:09:18.162Z,99340.02
2023-02-19T00:11:47.465Z,99349.29
2023-02-19T00:14:18.701Z,99354.83
2023-02-19T00:16:47.299Z,99353.20
2023-02-19T00:19:18.717Z,99353.95
2023-02-19T00:21:46.755Z,99355.03
2023-02-19T00:24:15.065Z,99352.39
2023-02-19T00:26:44.664Z,99350.02
2023-02-19T00:29:15.592Z,99352.35
2023-02-19T00:31:43.876Z,99348.73
2023-02-19T00:34:13.661Z,99347.98
2023-02-19T00:36:42.267Z,99353.38
2023-02-19T00:39:13.982Z,99358.02
2023-02-19T00:41:41.846Z,99366.65
2023-02-19T00:44:11.344Z,99367.95
2023-02-19T00:46:47.505Z,99373.52
2023-02-19T00:49:19.655Z,99368.56
2023-02-19T00:51:48.291Z,99369.64
2023-02-19T00:54:16.586Z,99366.90
2023-02-19T00:56:44.383Z,99368.42
2023-02-19T00:59:12.484Z,99363.57
2023-02-19T01:01:40.842Z,99360.82
2023-02-19T01:04:08.692Z,99357.60
2023-02-19T01:06:36.930Z,99362.98
2023-02-19T01:09:05.974Z,99354.31
2023-02-19T01:11:35.014Z,99354.58
2023-02-19T01:14:03.749Z,99353.46
2023-02-19T01:16:31.840Z,99353.25
2023-02-19T01:19:00.031Z,99357.04
2023-02-19T01:21:30.072Z,99356.50
2023-02-19T01:23:59.664Z,99356.63
2023-02-19T01:26:30.546Z,99357.55
2023-02-19T01:28:59.585Z,99360.51
2023-02-19T01:31:28.607Z,99354.58
2023-02-19T01:33:59.168Z,99351.39
2023-02-19T01:36:29.117Z,99346.86
2023-02-19T01:38:59.525Z,99350.48
2023-02-19T01:41:27.311Z,99347.94
2023-02-19T01:44:12.149Z,99342.34
2023-02-19T01:46:41.754Z,99343.80
2023-02-19T01:49:14.886Z,99341.10
2023-02-19T01:51:48.176Z,99337.54
2023-02-19T01:54:20.347Z,99339.38
2023-02-19T01:56:49.628Z,99341.52
2023-02-19T01:59:18.912Z,99339.98
2023-02-19T02:01:47.297Z,99335.15
2023-02-19T02:04:17.201Z,99331.20
2023-02-19T02:06:53.025Z,99331.86
2023-02-19T02:09:43.344Z,99332.77
2023-02-19T02:12:12.716Z,99334.92
2023-02-19T02:14:45.490Z,99332.28
2023-02-19T02:17:35.841Z,99329.98
2023-02-19T02:20:20.474Z,99326.90
2023-02-19T02:23:10.841Z,99332.77
2023-02-19T02:25:55.752Z,99331.37
2023-02-19T02:28:40.331Z,99329.70
2023-02-19T02:31:26.394Z,99326.56
2023-02-19T02:33:56.521Z,99328.09
2023-02-19T02:36:31.562Z,99326.62
2023-02-19T02:39:01.562Z,99325.59
2023-02-19T02:41:29.416Z,99322.95
2023-02-19T02:43:57.206Z,99320.35
2023-02-19T02:46:34.920Z,99315.89
2023-02-19T02:49:12.698Z,99311.67
2023-02-19T02:51:45.375Z,99312.98
2023-02-19T02:54:52.051Z,99302.98
2023-02-19T02:57:21.517Z,99299.83
2023-02-19T02:59:53.471Z,99295.02
2023-02-19T03:02:26.080Z,99293.77
2023-02-19T03:05:28.360Z,99291.60
2023-02-19T03:08:12.127Z,99288.38
2023-02-19T03:10:51.363Z,99281.79
2023-02-19T03:13:53.199Z,99278.99
2023-02-19T03:16:42.975Z,99280.23
2023-02-19T03:19:21.568Z,99276.98
2023-02-19T03:21:59.832Z,99273.54
2023-02-19T03:24:46.515Z,99266.84
2023-02-19T03:27:16.973Z,99268.95
2023-02-19T03:29:51.777Z,99270.92
2023-02-19T03:32:51.176Z,99275.71
2023-02-19T03:35:22.338Z,99274.30
2023-02-19T03:38:00.566Z,99275.69
2023-02-19T03:40:30.869Z,99278.24
2023-02-19T03:43:27.084Z,99276.41
2023-02-19T03:46:06.709Z,99278.02
2023-02-19T03:48:45.133Z,99277.15
2023-02-19T03:51:20.624Z,99277.31
2023-02-19T03:54:07.699Z,99276.71
2023-02-19T03:56:43.763Z,99281.14
2023-02-19T03:59:23.729Z,99281.35
2023-02-19T04:02:01.205Z,99276.31
2023-02-19T04:04:43.876Z,99278.00
2023-02-19T04:07:12.639Z,99276.15
2023-02-19T04:09:46.218Z,99275.83
2023-02-19T04:12:19.158Z,99285.23
2023-02-19T04:14:50.952Z,99283.61
2023-02-19T04:17:31.318Z,99283.61
2023-02-19T04:20:02.484Z,99286.02
2023-02-19T04:22:31.056Z,99283.54
2023-02-19T04:24:58.863Z,99278.68
2023-02-19T04:27:26.788Z,99277.96
2023-02-19T04:29:54.556Z,99276.84
2023-02-19T04:32:22.317Z,99280.45
2023-02-19T04:34:50.072Z,99279.05
2023-02-19T04:37:17.822Z,99282.66
2023-02-19T04:39:45.654Z,99281.86
2023-02-19T04:42:13.375Z,99278.60
2023-02-19T04:44:41.158Z,99278.41
2023-02-19T04:47:08.953Z,99279.39
2023-02-19T04:49:36.672Z,99281.59
2023-02-19T04:52:04.560Z,99280.71
2023-02-19T04:54:32.298Z,99283.85
2023-02-19T04:57:00.038Z,99282.12
2023-02-19T04:59:28.125Z,99276.83
2023-02-19T05:01:57.428Z,99280.66
2023-02-19T05:04:25.318Z,99275.27
2023-02-19T05:06:53.087Z,99272.45
2023-02-19T05:09:20.976Z,99271.93
2023-02-19T05:11:48.695Z,99273.02
2023-02-19T05:14:17.179Z,99276.42
2023-02-19T05:16:44.910Z,99278.09
2023-02-19T05:19:13.907Z,99283.11
2023-02-19T05:21:41.703Z,99285.69
2023-02-19T05:24:09.490Z,99287.17
2023-02-19T05:26:37.391Z,99288.75
2023-02-19T05:29:05.127Z,99288.68
2023-02-19T05:31:36.089Z,99283.23
2023-02-19T05:34:04.165Z,99286.67
2023-02-19T05:36:32.450Z,99285.70
2023-02-19T05:39:00.232Z,99283.04
2023-02-19T05:41:29.944Z,99284.87
2023-02-19T05:43:58.636Z,99283.59
2023-02-19T05:46:32.282Z,99280.94
2023-02-19T05:49:00.265Z,99281.84
2023-02-19T05:51:28.064Z,99286.86
2023-02-19T05:53:57.070Z,99288.80
2023-02-19T05:56:40.706Z,99287.77
2023-02-19T05:59:20.179Z,99286.86
2023-02-19T06:01:49.637Z,99288.70
2023-02-19T06:04:19.856Z,99296.31
2023-02-19T06:06:48.770Z,99295.77
2023-02-19T06:09:17.155Z,99292.21
2023-02-19T06:11:44.966Z,99294.16
2023-02-19T06:14:14.108Z,99297.08
2023-02-19T06:16:42.644Z,99296.76
2023-02-19T06:19:10.503Z,99297.24
2023-02-19T06:21:38.231Z,99303.66
2023-02-19T06:24:08.470Z,99304.36
2023-02-19T06:26:36.566Z,99312.55
2023-02-19T06:29:04.356Z,99316.71
2023-02-19T06:31:32.445Z,99319.96
2023-02-19T06:34:04.700Z,99321.09
2023-02-19T06:36:32.437Z,99320.55
2023-02-19T06:39:00.857Z,99326.15
2023-02-19T06:41:28.723Z,99327.84
2023-02-19T06:44:00.002Z,99330.75
2023-02-19T06:46:27.821Z,99330.96
2023-02-19T06:48:55.573Z,99337.16
2023-02-19T06:51:26.307Z,99339.73
2023-02-19T06:53:54.303Z,99340.05
2023-02-19T06:56:30.174Z,99342.49
2023-02-19T06:59:00.275Z,99346.64
2023-02-19T07:01:30.087Z,99339.39
2023-02-19T07:03:58.156Z,99344.83
2023-02-19T07:06:27.220Z,99345.80
2023-02-19T07:08:57.057Z,99342.66
2023-02-19T07:11:25.536Z,99347.58
2023-02-19T07:14:00.938Z,99346.65
2023-02-19T07:16:28.794Z,99347.38
2023-02-19T07:18:58.439Z,99346.50
2023-02-19T07:21:27.333Z,99353.23
2023-02-19T07:23:55.510Z,99353.48
2023-02-19T07:26:24.100Z,99362.10
2023-02-19T07:28:52.337Z,99359.98
2023-02-19T07:31:22.678Z,99362.23
2023-02-19T07:33:51.293Z,99360.65
2023-02-19T07:36:20.635Z,99374.04
2023-02-19T07:38:55.215Z,99371.73
2023-02-19T07:41:24.303Z,99374.16
2023-02-19T07:43:53.346Z,99377.14
2023-02-19T07:46:22.207Z,99384.35
2023-02-19T07:48:49.989Z,99387.73
2023-02-19T07:51:19.706Z,99380.38
2023-02-19T07:53:50.473Z,99384.40
2023-02-19T07:56:19.483Z,99383.18
2023-02-19T07:58:47.614Z,99382.02
2023-02-19T08:01:44.107Z,99377.07
2023-02-19T08:04:13.737Z,99378.88
2023-02-19T08:06:42.405Z,99378.96
2023-02-19T08:09:10.465Z,99384.30
2023-02-19T08:11:54.282Z,99386.00
2023-02-19T08:14:28.834Z,99380.30
2023-02-19T08:16:56.744Z,99392.30
2023-02-19T08:19:24.840Z,99396.88
2023-02-19T08:21:53.505Z,99398.70
2023-02-19T08:24:21.323Z,99401.75
2023-02-19T08:26:49.088Z,99397.52
2023-02-19T08:29:17.163Z,99402.14
2023-02-19T08:31:45.094Z,99404.26
2023-02-19T08:34:12.881Z,99407.89
2023-02-19T08:36:40.641Z,99407.00
2023-02-19T08:39:08.809Z,99415.86
2023-02-19T08:41:36.589Z,99415.80
2023-02-19T08:44:04.532Z,99410.92
2023-02-19T08:46:34.336Z,99418.58
2023-02-19T08:49:02.306Z,99421.23
2023-02-19T08:51:30.081Z,99422.91
2023-02-19T08:53:57.876Z,99423.21
2023-02-19T08:56:25.638Z,99425.86
2023-02-19T08:58:53.346Z,99424.05
2023-02-19T09:01:21.190Z,99423.02
2023-02-19T09:03:48.964Z,99430.42
2023-02-19T09:06:20.040Z,99433.34
2023-02-19T09:08:48.117Z,99442.84
2023-02-19T09:11:16.358Z,99443.15
2023-02-19T09:13:44.502Z,99440.80
2023-02-19T09:16:12.275Z,99438.30
2023-02-19T09:18:40.155Z,99439.11
2023-02-19T09:21:07.955Z,99442.15
2023-02-19T09:23:36.912Z,99437.77
2023-02-19T09:26:09.246Z,99436.52
2023-02-19T09:28:39.651Z,99438.45
2023-02-19T09:31:11.172Z,99435.16
2023-02-19T09:33:44.032Z,99444.16
2023-02-19T09:36:13.282Z,99438.08
2023-02-19T09:38:41.895Z,99448.44
2023-02-19T09:41:22.350Z,99456.17
2023-02-19T09:43:50.518Z,99462.25
2023-02-19T09:46:34.327Z,99458.54
2023-02-19T09:49:18.023Z,99452.85
2023-02-19T09:51:55.270Z,99460.44
2023-02-19T09:54:26.095Z,99462.47
2023-02-19T09:56:59.833Z,99470.08
2023-02-19T09:59:36.911Z,99470.08
2023-02-19T10:02:15.376Z,99482.70
2023-02-19T10:04:45.636Z,99478.24
2023-02-19T10:07:16.334Z,99480.17
2023-02-19T10:10:02.467Z,99479.35
2023-02-19T10:12:31.925Z,99479.48
2023-02-19T10:15:16.763Z,99486.33
2023-02-19T10:17:44.906Z,99483.36
2023-02-19T10:20:22.281Z,99481.11
2023-02-19T10:22:57.251Z,99490.58
2023-02-19T10:25:25.086Z,99484.30
2023-02-19T10:27:52.895Z,99493.96
2023-02-19T10:30:24.841Z,99495.03
2023-02-19T10:33:08.366Z,99490.42
2023-02-19T10:35:38.992Z,99490.58
2023-02-19T10:38:08.165Z,99489.30
2023-02-19T10:40:35.900Z,99489.82
2023-02-19T10:43:05.015Z,99488.15
2023-02-19T10:45:47.807Z,99496.73
2023-02-19T10:48:25.230Z,99497.78
2023-02-19T10:50:59.877Z,99498.42
2023-02-19T10:53:45.240Z,99497.23
2023-02-19T10:56:16.275Z,99503.15
2023-02-19T10:58:44.979Z,99500.02
2023-02-19T11:01:21.376Z,99498.35
2023-02-19T11:03:51.770Z,99502.99
2023-02-19T11:06:26.677Z,99502.04
2023-02-19T11:08:58.871Z,99511.02
2023-02-19T11:11:29.383Z,99510.52
2023-02-19T11:13:59.626Z,99520.59
2023-02-19T11:16:48.104Z,99517.64
2023-02-19T11:19:21.850Z,99514.40
2023-02-19T11:21:50.149Z,99515.77
2023-02-19T11:24:37.166Z,99519.34
2023-02-19T11:27:14.057Z,99520.59
2023-02-19T11:29:41.815Z,99522.88
2023-02-19T11:32:29.131Z,99521.54
2023-02-19T11:35:23.592Z,99525.55
2023-02-19T11:37:59.500Z,99527.89
2023-02-19T11:40:40.988Z,99535.59
2023-02-19T11:43:24.724Z,99530.52
2023-02-19T11:46:07.032Z,99526.40
2023-02-19T11:49:00.341Z,99532.90
2023-02-19T11:51:52.693Z,99537.29
2023-02-19T11:54:51.898Z,99538.35
2023-02-19T11:57:34.629Z,99535.63
2023-02-19T12:00:25.391Z,99536.58
2023-02-19T12:03:01.897Z,99537.00
2023-02-19T12:05:45.625Z,99540.52
2023-02-19T12:08:29.306Z,99560.95
2023-02-19T12:11:17.252Z,99555.10
2023-02-19T12:14:03.590Z,99562.02
2023-02-19T12:17:10.608Z,99566.13
2023-02-19T12:19:54.213Z,99565.58
2023-02-19T12:22:28.009Z,99572.58
2023-02-19T12:24:55.745Z,99571.41
2023-02-19T12:27:57.448Z,99575.36
2023-02-19T12:30:29.477Z,99582.88
2023-02-19T12:33:29.116Z,99584.89
2023-02-19T12:36:03.736Z,99591.58
2023-02-19T12:38:39.904Z,99578.11
2023-02-19T12:41:29.829Z,99582.25
2023-02-19T12:44:12.438Z,99578.97
2023-02-19T12:46:46.741Z,99578.82
2023-02-19T12:49:30.363Z,99588.18
2023-02-19T12:52:08.362Z,99592.73
2023-02-19T12:54:41.138Z,99590.89
2023-02-19T12:57:12.188Z,99596.70
2023-02-19T12:59:42.966Z,99603.14
2023-02-19T13:02:26.762Z,99592.09
2023-02-19T13:05:11.426Z,99605.63
2023-02-19T13:07:48.277Z,99588.61
2023-02-19T13:10:48.525Z,99597.78
2023-02-19T13:13:25.304Z,99593.22
2023-02-19T13:16:00.099Z,99597.95
2023-02-19T13:18:46.641Z,99602.64
2023-02-19T13:21:36.856Z,99623.71
2023-02-19T13:24:11.260Z,99639.11
2023-02-19T13:26:54.923Z,99636.59
2023-02-19T13:29:22.640Z,99637.70
2023-02-19T13:31:53.471Z,99639.00
2023-02-19T13:34:39.979Z,99633.36
2023-02-19T13:37:08.490Z,99635.95
2023-02-19T13:39:36.282Z,99639.51
2023-02-19T13:42:04.195Z,99638.39
2023-02-19T13:44:34.317Z,99636.93
2023-02-19T13:47:06.081Z,99647.34
2023-02-19T13:49:33.839Z,99651.34
2023-02-19T13:52:38.045Z,99654.09
2023-02-19T13:55:40.758Z,99649.59
2023-02-19T13:58:41.460Z,99643.55
2023-02-19T14:01:11.590Z,99652.80
2023-02-19T14:03:42.734Z,99647.93
2023-02-19T14:06:11.037Z,99650.71
2023-02-19T14:08:56.300Z,99653.88
2023-02-19T14:11:42.948Z,99655.70
2023-02-19T14:14:34.240Z,99661.66
2023-02-19T14:17:25.223Z,99663.95
2023-02-19T14:19:54.356Z,99662.03
2023-02-19T14:22:55.524Z,99658.98
2023-02-19T14:25:55.769Z,99665.69
2023-02-19T14:28:33.472Z,99675.64
2023-02-19T14:31:10.799Z,99680.14
2023-02-19T14:33:44.206Z,99684.14
2023-02-19T14:36:44.996Z,99676.67
2023-02-19T14:39:33.052Z,99679.91
2023-02-19T14:42:05.565Z,99681.13
2023-02-19T14:44:43.575Z,99688.33
2023-02-19T14:47:18.581Z,99693.66
2023-02-19T14:49:49.402Z,99688.68
2023-02-19T14:52:44.278Z,99689.02
2023-02-19T14:55:22.800Z,99692.37
2023-02-19T14:57:53.029Z,99694.74
2023-02-19T15:00:27.245Z,99700.55
2023-02-19T15:02:57.558Z,99697.23
2023-02-19T15:05:26.999Z,99700.16
2023-02-19T15:07:59.346Z,99701.23
2023-02-19T15:10:29.599Z,99709.61
2023-02-19T15:13:01.465Z,99705.25
2023-02-19T15:15:32.940Z,99707.89
2023-02-19T15:18:02.517Z,99706.67
2023-02-19T15:20:37.152Z,99713.23
2023-02-19T15:23:07.534Z,99714.65
2023-02-19T15:25:38.015Z,99715.58
2023-02-19T15:28:21.980Z,99722.91
2023-02-19T15:30:50.237Z,99726.52
2023-02-19T15:33:20.423Z,99725.80
2023-02-19T15:36:09.331Z,99724.04
2023-02-19T15:38:37.524Z,99730.70
2023-02-19T15:41:05.755Z,99740.73
2023-02-19T15:43:53.861Z,99740.65
2023-02-19T15:46:24.729Z,99745.15
2023-02-19T15:48:56.254Z,99748.91
2023-02-19T15:51:40.415Z,99760.56
2023-02-19T15:54:20.252Z,99764.54
2023-02-19T15:56:50.532Z,99786.08
2023-02-19T15:59:28.688Z,99790.89
2023-02-19T16:01:56.923Z,99793.36
2023-02-19T16:04:24.728Z,99798.06
2023-02-19T16:06:59.870Z,99798.64
2023-02-19T16:09:37.250Z,99798.64
2023-02-19T16:12:23.550Z,99803.09
2023-02-19T16:14:51.481Z,99802.54
2023-02-19T16:17:23.301Z,99807.55
2023-02-19T16:20:00.493Z,99814.68
2023-02-19T16:22:31.314Z,99817.27
2023-02-19T16:25:02.919Z,99820.04
2023-02-19T16:27:40.493Z,99823.40
2023-02-19T16:30:34.583Z,99831.12
2023-02-19T16:33:18.252Z,99837.44
2023-02-19T16:35:48.061Z,99844.35
2023-02-19T16:38:17.178Z,99849.44
2023-02-19T16:40:47.953Z,99852.48
2023-02-19T16:43:15.684Z,99853.90
2023-02-19T16:45:47.485Z,99858.35
2023-02-19T16:48:16.060Z,99853.45
2023-02-19T16:50:46.103Z,99861.41
2023-02-19T16:53:24.887Z,99865.11
2023-02-19T16:55:52.652Z,99869.17
2023-02-19T16:58:21.381Z,99877.46
2023-02-19T17:00:49.263Z,99880.97
2023-02-19T17:03:22.456Z,99883.73
2023-02-19T17:05:50.664Z,99887.83
2023-02-19T17:08:37.017Z,99892.28
2023-02-19T17:11:11.482Z,99896.00
2023-02-19T17:13:40.097Z,99898.70
2023-02-19T17:16:08.253Z,99910.48
2023-02-19T17:18:36.005Z,99918.97
2023-02-19T17:21:21.312Z,99924.10
2023-02-19T17:23:49.997Z,99927.17
2023-02-19T17:26:29.591Z,99925.11
2023-02-19T17:28:58.974Z,99921.83
2023-02-19T17:31:27.654Z,99926.58
2023-02-19T17:33:55.950Z,99934.84
2023-02-19T17:36:30.842Z,99928.36
2023-02-19T17:39:00.440Z,99930.73
2023-02-19T17:41:28.289Z,99929.44
2023-02-19T17:43:56.039Z,99933.52
2023-02-19T17:46:26.455Z,99935.64
2023-02-19T17:48:54.847Z,99935.25
2023-02-19T17:51:23.479Z,99933.89
2023-02-19T17:53:51.235Z,99936.20
2023-02-19T17:56:22.090Z,99938.63
2023-02-19T17:58:50.100Z,99942.48
2023-02-19T18:01:18.142Z,99936.70
2023-02-19T18:03:46.022Z,99942.04
2023-02-19T18:06:13.795Z,99942.63
2023-02-19T18:08:58.480Z,99945.92
2023-02-19T18:11:26.197Z,99958.27
2023-02-19T18:13:54.005Z,99963.33
2023-02-19T18:16:22.151Z,99967.31
2023-02-19T18:18:50.590Z,99980.85
2023-02-19T18:21:18.357Z,99985.71
2023-02-19T18:23:47.060Z,99990.40
2023-02-19T18:26:19.536Z,99987.15
2023-02-19T18:28:47.253Z,99992.55
2023-02-19T18:31:15.527Z,99989.88
2023-02-19T18:33:43.713Z,99997.27
2023-02-19T18:36:12.420Z,100001.31
2023-02-19T18:38:40.300Z,100000.34
2023-02-19T18:41:12.227Z,100002.35
2023-02-19T18:43:41.964Z,100007.38
2023-02-19T18:46:10.295Z,100014.38
2023-02-19T18:48:38.546Z,100006.88
2023-02-19T18:51:10.938Z,100006.98
2023-02-19T18:53:38.918Z,100012.10
2023-02-19T18:56:08.855Z,100010.08
2023-02-19T18:58:36.646Z,100017.86
2023-02-19T19:01:04.640Z,100021.38
2023-02-19T19:03:32.442Z,100013.83
2023-02-19T19:06:00.265Z,100018.77
2023-02-19T19:08:30.374Z,100031.60
2023-02-19T19:10:58.448Z,100034.67
2023-02-19T19:13:26.485Z,100028.36
2023-02-19T19:15:54.293Z,100024.73
2023-02-19T19:18:23.019Z,100029.80
2023-02-19T19:20:50.805Z,100031.63
2023-02-19T19:23:18.518Z,100027.69
2023-02-19T19:25:46.285Z,100026.49
2023-02-19T19:28:14.017Z,100008.31
2023-02-19T19:30:41.995Z,100010.30
2023-02-19T19:33:09.863Z,100009.92
2023-02-19T19:35:37.597Z,100005.23
2023-02-19T19:38:05.373Z,100001.71
2023-02-19T19:40:33.218Z,99992.22
2023-02-19T19:43:00.979Z,99990.32
2023-02-19T19:45:28.773Z,99991.11
2023-02-19T19:47:56.528Z,99985.65
2023-02-19T19:50:24.293Z,99982.15
2023-02-19T19:52:52.186Z,99984.41
2023-02-19T19:55:21.730Z,99986.29
2023-02-19T19:57:49.588Z,99982.56
2023-02-19T20:00:18.772Z,99984.86
2023-02-19T20:02:46.987Z,99995.40
2023-02-19T20:05:16.693Z,99998.95
2023-02-19T20:07:45.518Z,100000.73
2023-02-19T20:10:15.900Z,100005.58
2023-02-19T20:12:43.655Z,100002.33
2023-02-19T20:15:11.917Z,100011.70
2023-02-19T20:17:39.661Z,100000.36
2023-02-19T20:20:08.308Z,99996.15
2023-02-19T20:22:36.686Z,100005.67
2023-02-19T20:25:05.087Z,99998.48
2023-02-19T20:27:32.808Z,100001.02
2023-02-19T20:30:00.636Z,100008.16
2023-02-19T20:32:28.360Z,100006.42
2023-02-19T20:34:56.075Z,99998.23
2023-02-19T20:37:23.793Z,100000.69
2023-02-19T20:39:51.536Z,100011.70
2023-02-19T20:42:19.293Z,100014.84
2023-02-19T20:44:47.377Z,100008.98
2023-02-19T20:47:15.211Z,100015.30
2023-02-19T20:49:46.689Z,100019.34
2023-02-19T20:52:16.582Z,100015.36
2023-02-19T20:54:44.905Z,100005.92
2023-02-19T20:57:14.097Z,100012.92
2023-02-19T20:59:43.991Z,100013.00
2023-02-19T21:02:18.778Z,100015.21
2023-02-19T21:04:46.615Z,100012.67
2023-02-19T21:07:14.914Z,100003.52
2023-02-19T21:09:42.670Z,99998.13
2023-02-19T21:12:10.500Z,100005.91
2023-02-19T21:14:38.410Z,100010.83
2023-02-19T21:17:06.249Z,100005.20
2023-02-19T21:19:34.145Z,100007.96
2023-02-19T21:22:01.872Z,100015.16
2023-02-19T21:24:29.690Z,100019.34
2023-02-19T21:26:57.398Z,100024.23
2023-02-19T21:29:25.983Z,100027.58
2023-02-19T21:31:56.382Z,100019.44
2023-02-19T21:34:26.915Z,100023.61
2023-02-19T21:36:55.936Z,100033.63
2023-02-19T21:39:25.402Z,100031.86
2023-02-19T21:41:53.564Z,100027.16
2023-02-19T21:44:21.603Z,100032.89
2023-02-19T21:46:49.374Z,100039.68
2023-02-19T21:49:17.741Z,100035.48
2023-02-19T21:51:48.424Z,100024.95
2023-02-19T21:54:25.914Z,100027.59
2023-02-19T21:56:54.374Z,100022.41
2023-02-19T21:59:22.571Z,100023.71
2023-02-19T22:01:50.958Z,100024.61
2023-02-19T22:04:21.622Z,100028.20
2023-02-19T22:06:49.370Z,100028.84
2023-02-19T22:09:17.093Z,100027.59
2023-02-19T22:11:44.788Z,100031.23
2023-02-19T22:14:12.566Z,100033.80
2023-02-19T22:16:40.326Z,100033.29
2023-02-19T22:19:09.558Z,100029.86
2023-02-19T22:21:43.726Z,100027.74
2023-02-19T22:24:20.325Z,100019.16
2023-02-19T22:26:50.541Z,100020.16
2023-02-19T22:29:19.555Z,100019.34
2023-02-19T22:31:47.751Z,100018.23
2023-02-19T22:34:16.880Z,100013.69
2023-02-19T22:36:44.750Z,100011.37
2023-02-19T22:39:20.519Z,100014.59
2023-02-19T22:41:48.390Z,100021.45
2023-02-19T22:44:16.761Z,100021.14
2023-02-19T22:46:56.024Z,100017.54
2023-02-19T22:49:24.521Z,100020.52
2023-02-19T22:51:58.303Z,100013.42
2023-02-19T22:54:27.027Z,100014.13
2023-02-19T22:56:55.704Z,100024.36
2023-02-19T22:59:23.632Z,100032.97
2023-02-19T23:01:51.844Z,100016.63
2023-02-19T23:04:21.250Z,100018.35
2023-02-19T23:06:50.370Z,100016.64
2023-02-19T23:09:27.107Z,100032.70
2023-02-19T23:12:03.202Z,100026.25
2023-02-19T23:14:31.561Z,100024.05
2023-02-19T23:16:59.619Z,100017.26
2023-02-19T23:19:27.495Z,100015.69
2023-02-19T23:21:55.417Z,100008.84
2023-02-19T23:24:23.130Z,100012.84
2023-02-19T23:26:52.997Z,100006.58
2023-02-19T23:29:25.358Z,100005.83
2023-02-19T23:31:54.462Z,100006.63
2023-02-19T23:34:24.263Z,100007.55
2023-02-19T23:36:52.470Z,100002.90
2023-02-19T23:39:21.876Z,99998.58
2023-02-19T23:41:51.954Z,100003.59
2023-02-19T23:44:21.474Z,100005.05
2023-02-19T23:46:50.640Z,99993.65
2023-02-19T23:49:19.255Z,99996.23
2023-02-19T23:51:47.194Z,99995.52
2023-02-19T23:54:15.014Z,99998.63
2023-02-19T23:56:42.868Z,100003.54
2023-02-19T23:59:10.593Z,100005.85
